createdAt,value
2023-05-14T00:00:13.205Z,8.88
2023-05-14T00:00:43.966Z,8.88
2023-05-14T00:01:16.889Z,8.88
2023-05-14T00:01:48.108Z,8.88
2023-05-14T00:02:21.358Z,8.88
2023-05-14T00:02:51.995Z,8.77
2023-05-14T00:03:25.010Z,8.77
2023-05-14T00:03:56.018Z,8.77
2023-05-14T00:04:28.684Z,8.77
2023-05-14T00:04:59.819Z,8.77
2023-05-14T00:05:32.783Z,8.77
2023-05-14T00:06:03.883Z,8.77
2023-05-14T00:06:36.661Z,8.77
2023-05-14T00:07:07.761Z,8.77
2023-05-14T00:07:40.812Z,8.77
2023-05-14T00:08:11.734Z,8.77
2023-05-14T00:08:44.528Z,8.72
2023-05-14T00:09:15.630Z,8.72
2023-05-14T00:09:48.556Z,8.72
2023-05-14T00:10:19.700Z,8.72
2023-05-14T00:10:52.440Z,8.72
2023-05-14T00:11:23.529Z,8.72
2023-05-14T00:11:56.384Z,8.72
2023-05-14T00:12:27.599Z,8.72
2023-05-14T00:13:00.429Z,8.72
2023-05-14T00:13:31.561Z,8.61
2023-05-14T00:14:04.510Z,8.61
2023-05-14T00:14:35.508Z,8.61
2023-05-14T00:15:08.488Z,8.61
2023-05-14T00:15:39.462Z,8.61
2023-05-14T00:16:12.380Z,8.61
2023-05-14T00:16:43.417Z,8.61
2023-05-14T00:17:16.139Z,8.61
2023-05-14T00:17:47.397Z,8.61
2023-05-14T00:18:20.353Z,8.61
2023-05-14T00:18:51.456Z,8.61
2023-05-14T00:19:23.967Z,8.61
2023-05-14T00:19:55.193Z,8.50
2023-05-14T00:20:28.151Z,8.50
2023-05-14T00:20:59.067Z,8.50
2023-05-14T00:21:32.039Z,8.50
2023-05-14T00:22:03.155Z,8.50
2023-05-14T00:22:36.940Z,8.50
2023-05-14T00:23:07.123Z,8.50
2023-05-14T00:23:39.883Z,8.50
2023-05-14T00:24:11.117Z,8.50
2023-05-14T00:24:43.969Z,8.50
2023-05-14T00:25:14.911Z,8.38
2023-05-14T00:25:47.847Z,8.38
2023-05-14T00:26:18.970Z,8.38
2023-05-14T00:26:51.895Z,8.50
2023-05-14T00:27:22.829Z,8.50
2023-05-14T00:27:55.649Z,8.50
2023-05-14T00:28:26.976Z,8.38
2023-05-14T00:28:59.817Z,8.38
2023-05-14T00:29:30.915Z,8.38
2023-05-14T00:30:03.760Z,8.38
2023-05-14T00:30:34.775Z,8.38
2023-05-14T00:31:07.759Z,8.38
2023-05-14T00:31:38.700Z,8.38
2023-05-14T00:32:11.566Z,8.38
2023-05-14T00:32:42.729Z,8.38
2023-05-14T00:33:15.636Z,8.38
2023-05-14T00:33:46.661Z,8.38
2023-05-14T00:34:19.797Z,8.38
2023-05-14T00:34:50.832Z,8.38
2023-05-14T00:35:23.544Z,8.38
2023-05-14T00:35:54.461Z,8.38
2023-05-14T00:36:27.491Z,8.38
2023-05-14T00:36:58.530Z,8.38
2023-05-14T00:37:31.519Z,8.38
2023-05-14T00:38:02.404Z,8.38
2023-05-14T00:38:36.914Z,8.27
2023-05-14T00:39:06.455Z,8.27
2023-05-14T00:39:39.073Z,8.27
2023-05-14T00:40:10.356Z,8.27
2023-05-14T00:40:43.264Z,8.27
2023-05-14T00:41:14.358Z,8.27
2023-05-14T00:41:47.104Z,8.27
2023-05-14T00:42:18.220Z,8.22
2023-05-14T00:42:51.109Z,8.22
2023-05-14T00:43:22.324Z,8.22
2023-05-14T00:43:55.004Z,8.22
2023-05-14T00:44:26.126Z,8.22
2023-05-14T00:44:59.490Z,8.22
2023-05-14T00:45:30.399Z,8.22
2023-05-14T00:46:02.944Z,8.22
2023-05-14T00:46:34.294Z,8.22
2023-05-14T00:47:07.048Z,8.22
2023-05-14T00:47:38.132Z,8.22
2023-05-14T00:48:10.930Z,8.22
2023-05-14T00:48:41.963Z,8.11
2023-05-14T00:49:14.893Z,8.11
2023-05-14T00:49:46.019Z,8.11
2023-05-14T00:50:18.782Z,8.11
2023-05-14T00:50:49.861Z,8.11
2023-05-14T00:51:22.811Z,8.11
2023-05-14T00:51:53.960Z,8.11
2023-05-14T00:52:26.643Z,8.11
2023-05-14T00:52:57.785Z,8.11
2023-05-14T00:53:30.933Z,8.11
2023-05-14T00:54:01.890Z,8.11
2023-05-14T00:54:34.567Z,8.11
2023-05-14T00:55:05.826Z,8.11
2023-05-14T00:55:38.643Z,8.11
2023-05-14T00:56:09.773Z,8.11
2023-05-14T00:56:42.489Z,8.11
2023-05-14T00:57:13.656Z,8.11
2023-05-14T00:57:46.552Z,8.11
2023-05-14T00:58:17.688Z,8.11
2023-05-14T00:58:50.545Z,8.11
2023-05-14T00:59:21.737Z,8.11
2023-05-14T00:59:54.456Z,8.11
2023-05-14T01:00:25.982Z,8.11
2023-05-14T01:00:58.370Z,8.22
2023-05-14T01:01:29.495Z,8.22
2023-05-14T01:02:02.312Z,8.22
2023-05-14T01:02:33.771Z,8.22
2023-05-14T01:03:06.381Z,8.22
2023-05-14T01:03:37.552Z,8.22
2023-05-14T01:04:10.449Z,8.22
2023-05-14T01:04:41.442Z,8.22
2023-05-14T01:05:14.157Z,8.22
2023-05-14T01:05:45.603Z,8.22
2023-05-14T01:06:18.443Z,8.22
2023-05-14T01:06:49.123Z,8.22
2023-05-14T01:07:21.970Z,8.22
2023-05-14T01:07:53.189Z,8.22
2023-05-14T01:08:26.216Z,8.22
2023-05-14T01:08:57.056Z,8.22
2023-05-14T01:09:30.041Z,8.11
2023-05-14T01:10:01.449Z,8.11
2023-05-14T01:10:34.134Z,8.11
2023-05-14T01:11:04.954Z,8.11
2023-05-14T01:11:37.862Z,8.11
2023-05-14T01:12:09.341Z,8.11
2023-05-14T01:12:41.935Z,8.11
2023-05-14T01:13:12.899Z,8.00
2023-05-14T01:13:46.511Z,8.00
2023-05-14T01:14:16.988Z,8.00
2023-05-14T01:14:49.864Z,8.00
2023-05-14T01:15:21.009Z,8.00
2023-05-14T01:15:53.809Z,8.00
2023-05-14T01:16:24.958Z,8.00
2023-05-14T01:16:57.938Z,8.00
2023-05-14T01:17:28.793Z,8.00
2023-05-14T01:18:01.712Z,8.00
2023-05-14T01:18:33.567Z,8.00
2023-05-14T01:19:05.870Z,8.00
2023-05-14T01:19:36.630Z,8.00
2023-05-14T01:20:09.560Z,8.11
2023-05-14T01:20:40.884Z,8.11
2023-05-14T01:21:13.592Z,8.00
2023-05-14T01:21:44.565Z,8.00
2023-05-14T01:22:17.492Z,8.00
2023-05-14T01:22:48.602Z,8.00
2023-05-14T01:23:22.146Z,8.00
2023-05-14T01:23:52.459Z,7.88
2023-05-14T01:24:25.276Z,7.88
2023-05-14T01:24:56.504Z,7.88
2023-05-14T01:25:29.314Z,7.88
2023-05-14T01:26:00.464Z,7.88
2023-05-14T01:26:33.284Z,7.88
2023-05-14T01:27:04.418Z,7.88
2023-05-14T01:27:37.555Z,7.88
2023-05-14T01:28:08.284Z,7.88
2023-05-14T01:28:41.470Z,7.88
2023-05-14T01:29:12.355Z,7.88
2023-05-14T01:29:45.107Z,7.77
2023-05-14T01:30:16.462Z,7.77
2023-05-14T01:30:49.034Z,7.77
2023-05-14T01:31:20.331Z,7.77
2023-05-14T01:31:53.011Z,7.77
2023-05-14T01:32:24.175Z,7.77
2023-05-14T01:32:57.112Z,7.77
2023-05-14T01:33:28.461Z,7.72
2023-05-14T01:34:01.011Z,7.72
2023-05-14T01:34:32.052Z,7.77
2023-05-14T01:35:05.009Z,7.77
2023-05-14T01:35:36.098Z,7.77
2023-05-14T01:36:08.822Z,7.77
2023-05-14T01:36:39.978Z,7.77
2023-05-14T01:37:12.797Z,7.72
2023-05-14T01:37:44.006Z,7.72
2023-05-14T01:38:16.768Z,7.72
2023-05-14T01:38:47.928Z,7.72
2023-05-14T01:39:20.972Z,7.72
2023-05-14T01:39:51.913Z,7.72
2023-05-14T01:40:24.935Z,7.72
2023-05-14T01:40:55.784Z,7.72
2023-05-14T01:41:28.767Z,7.72
2023-05-14T01:41:59.885Z,7.72
2023-05-14T01:42:32.434Z,7.72
2023-05-14T01:43:03.905Z,7.72
2023-05-14T01:43:36.764Z,7.72
2023-05-14T01:44:07.819Z,7.72
2023-05-14T01:44:40.491Z,7.72
2023-05-14T01:45:11.706Z,7.72
2023-05-14T01:45:44.481Z,7.72
2023-05-14T01:46:15.748Z,7.72
2023-05-14T01:46:48.423Z,7.61
2023-05-14T01:47:19.539Z,7.61
2023-05-14T01:47:52.368Z,7.61
2023-05-14T01:48:23.659Z,7.61
2023-05-14T01:48:56.308Z,7.61
2023-05-14T01:49:27.466Z,7.61
2023-05-14T01:50:00.619Z,7.61
2023-05-14T01:50:31.426Z,7.61
2023-05-14T01:51:04.148Z,7.50
2023-05-14T01:51:35.482Z,7.50
2023-05-14T01:52:08.230Z,7.50
2023-05-14T01:52:39.254Z,7.50
2023-05-14T01:53:12.273Z,7.50
2023-05-14T01:53:43.298Z,7.50
2023-05-14T01:54:16.164Z,7.50
2023-05-14T01:54:47.194Z,7.61
2023-05-14T01:55:20.100Z,7.61
2023-05-14T01:55:51.373Z,7.61
2023-05-14T01:56:24.160Z,7.50
2023-05-14T01:56:55.080Z,7.50
2023-05-14T01:57:28.064Z,7.50
2023-05-14T01:57:59.257Z,7.50
2023-05-14T01:58:32.037Z,7.50
2023-05-14T01:59:02.999Z,7.50
2023-05-14T01:59:35.815Z,7.50
2023-05-14T02:00:07.727Z,7.50
2023-05-14T02:00:39.877Z,7.50
2023-05-14T02:01:11.185Z,7.50
2023-05-14T02:01:44.250Z,7.50
2023-05-14T02:02:14.983Z,7.50
2023-05-14T02:02:47.965Z,7.50
2023-05-14T02:03:18.889Z,7.38
2023-05-14T02:03:51.835Z,7.38
2023-05-14T02:04:22.961Z,7.38
2023-05-14T02:04:55.621Z,7.38
2023-05-14T02:05:26.780Z,7.38
2023-05-14T02:05:59.722Z,7.38
2023-05-14T02:06:31.048Z,7.38
2023-05-14T02:07:03.697Z,7.38
2023-05-14T02:07:34.657Z,7.38
2023-05-14T02:08:07.619Z,7.38
2023-05-14T02:08:38.762Z,7.38
2023-05-14T02:09:11.483Z,7.38
2023-05-14T02:09:42.560Z,7.38
2023-05-14T02:10:15.590Z,7.38
2023-05-14T02:10:46.718Z,7.38
2023-05-14T02:11:19.242Z,7.38
2023-05-14T02:11:50.611Z,7.38
2023-05-14T02:12:23.429Z,7.38
2023-05-14T02:12:54.602Z,7.38
2023-05-14T02:13:27.465Z,7.38
2023-05-14T02:13:58.411Z,7.38
2023-05-14T02:14:31.489Z,7.38
2023-05-14T02:15:02.558Z,7.38
2023-05-14T02:15:35.243Z,7.38
2023-05-14T02:16:06.330Z,7.38
2023-05-14T02:16:39.253Z,7.38
2023-05-14T02:17:10.485Z,7.38
2023-05-14T02:17:43.121Z,7.50
2023-05-14T02:18:14.262Z,7.50
2023-05-14T02:18:47.249Z,7.50
2023-05-14T02:19:18.256Z,7.50
2023-05-14T02:19:51.161Z,7.50
2023-05-14T02:20:22.339Z,7.50
2023-05-14T02:20:55.048Z,7.50
2023-05-14T02:21:26.236Z,7.50
2023-05-14T02:21:58.929Z,7.50
2023-05-14T02:22:30.071Z,7.50
2023-05-14T02:23:03.116Z,7.50
2023-05-14T02:23:41.639Z,7.50
2023-05-14T02:24:06.787Z,7.50
2023-05-14T02:24:38.050Z,7.50
2023-05-14T02:25:10.890Z,7.61
2023-05-14T02:25:41.814Z,7.61
2023-05-14T02:26:14.962Z,7.61
2023-05-14T02:26:45.879Z,7.61
2023-05-14T02:27:18.794Z,7.61
2023-05-14T02:27:49.943Z,7.61
2023-05-14T02:28:22.748Z,7.61
2023-05-14T02:28:53.801Z,7.61
2023-05-14T02:29:26.650Z,7.61
2023-05-14T02:29:57.694Z,7.61
2023-05-14T02:30:30.976Z,7.50
2023-05-14T02:31:01.715Z,7.50
2023-05-14T02:31:34.765Z,7.50
2023-05-14T02:32:05.597Z,7.50
2023-05-14T02:32:38.708Z,7.50
2023-05-14T02:33:09.735Z,7.50
2023-05-14T02:33:42.702Z,7.50
2023-05-14T02:34:13.444Z,7.50
2023-05-14T02:34:46.447Z,7.50
2023-05-14T02:35:17.587Z,7.50
2023-05-14T02:35:50.517Z,7.50
2023-05-14T02:36:21.425Z,7.50
2023-05-14T02:36:54.307Z,7.50
2023-05-14T02:37:25.513Z,7.50
2023-05-14T02:37:58.390Z,7.50
2023-05-14T02:38:29.319Z,7.50
2023-05-14T02:39:02.217Z,7.50
2023-05-14T02:39:33.964Z,7.50
2023-05-14T02:40:06.478Z,7.50
2023-05-14T02:40:37.213Z,7.50
2023-05-14T02:41:10.219Z,7.50
2023-05-14T02:41:41.319Z,7.50
2023-05-14T02:42:14.095Z,7.50
2023-05-14T02:42:45.131Z,7.61
2023-05-14T02:43:18.083Z,7.61
2023-05-14T02:43:49.145Z,7.61
2023-05-14T02:44:22.090Z,7.61
2023-05-14T02:44:53.044Z,7.61
2023-05-14T02:45:26.086Z,7.61
2023-05-14T02:45:57.135Z,7.61
2023-05-14T02:46:30.111Z,7.50
2023-05-14T02:47:01.135Z,7.50
2023-05-14T02:47:36.883Z,7.50
2023-05-14T02:48:05.084Z,7.50
2023-05-14T02:48:38.134Z,7.50
2023-05-14T02:49:08.859Z,7.50
2023-05-14T02:49:41.761Z,7.50
2023-05-14T02:50:12.971Z,7.50
2023-05-14T02:50:45.773Z,7.50
2023-05-14T02:51:16.875Z,7.50
2023-05-14T02:51:49.730Z,7.50
2023-05-14T02:52:21.114Z,7.50
2023-05-14T02:52:53.815Z,7.50
2023-05-14T02:53:24.745Z,7.50
2023-05-14T02:53:57.630Z,7.38
2023-05-14T02:54:28.730Z,7.38
2023-05-14T02:55:01.864Z,7.38
2023-05-14T02:55:32.610Z,7.38
2023-05-14T02:56:05.536Z,7.38
2023-05-14T02:56:36.661Z,7.38
2023-05-14T02:57:09.627Z,7.38
2023-05-14T02:57:40.604Z,7.38
2023-05-14T02:58:13.469Z,7.38
2023-05-14T02:58:44.556Z,7.38
2023-05-14T02:59:17.511Z,7.38
2023-05-14T02:59:48.422Z,7.38
2023-05-14T03:00:21.854Z,7.38
2023-05-14T03:00:52.591Z,7.38
2023-05-14T03:01:25.539Z,7.38
2023-05-14T03:01:56.393Z,7.38
2023-05-14T03:02:29.318Z,7.38
2023-05-14T03:03:00.516Z,7.38
2023-05-14T03:03:33.726Z,7.38
2023-05-14T03:04:04.420Z,7.38
2023-05-14T03:04:37.083Z,7.38
2023-05-14T03:05:08.309Z,7.38
2023-05-14T03:05:41.155Z,7.38
2023-05-14T03:06:12.174Z,7.38
2023-05-14T03:06:45.127Z,7.27
2023-05-14T03:07:16.240Z,7.27
2023-05-14T03:07:48.969Z,7.27
2023-05-14T03:08:20.114Z,7.27
2023-05-14T03:08:53.127Z,7.38
2023-05-14T03:09:24.193Z,7.38
2023-05-14T03:09:57.033Z,7.38
2023-05-14T03:10:28.073Z,7.38
2023-05-14T03:11:01.189Z,7.38
2023-05-14T03:11:32.053Z,7.38
2023-05-14T03:12:04.786Z,7.38
2023-05-14T03:12:35.915Z,7.38
2023-05-14T03:13:08.953Z,7.38
2023-05-14T03:13:39.999Z,7.38
2023-05-14T03:14:12.709Z,7.38
2023-05-14T03:14:43.838Z,7.38
2023-05-14T03:15:17.118Z,7.38
2023-05-14T03:15:47.920Z,7.38
2023-05-14T03:16:20.772Z,7.38
2023-05-14T03:16:51.858Z,7.38
2023-05-14T03:17:24.766Z,7.38
2023-05-14T03:17:55.888Z,7.27
2023-05-14T03:18:28.577Z,7.27
2023-05-14T03:18:59.737Z,7.27
2023-05-14T03:19:32.602Z,7.27
2023-05-14T03:20:03.797Z,7.27
2023-05-14T03:20:36.467Z,7.27
2023-05-14T03:21:07.655Z,7.27
2023-05-14T03:21:41.007Z,7.27
2023-05-14T03:22:11.675Z,7.27
2023-05-14T03:22:44.375Z,7.27
2023-05-14T03:23:15.528Z,7.27
2023-05-14T03:23:48.518Z,7.27
2023-05-14T03:24:19.586Z,7.27
2023-05-14T03:24:52.290Z,7.27
2023-05-14T03:25:23.515Z,7.27
2023-05-14T03:25:56.396Z,7.38
2023-05-14T03:26:27.505Z,7.38
2023-05-14T03:27:00.121Z,7.38
2023-05-14T03:27:31.400Z,7.38
2023-05-14T03:28:04.382Z,7.38
2023-05-14T03:28:35.403Z,7.38
2023-05-14T03:29:08.137Z,7.38
2023-05-14T03:29:39.258Z,7.38
2023-05-14T03:30:12.297Z,7.38
2023-05-14T03:30:43.399Z,7.38
2023-05-14T03:31:16.048Z,7.38
2023-05-14T03:31:47.184Z,7.38
2023-05-14T03:32:20.223Z,7.38
2023-05-14T03:32:51.515Z,7.50
2023-05-14T03:33:24.133Z,7.50
2023-05-14T03:33:55.240Z,7.50
2023-05-14T03:34:28.032Z,7.50
2023-05-14T03:34:58.969Z,7.50
2023-05-14T03:35:31.776Z,7.50
2023-05-14T03:36:02.998Z,7.50
2023-05-14T03:36:36.034Z,7.50
2023-05-14T03:37:06.846Z,7.50
2023-05-14T03:37:39.813Z,7.50
2023-05-14T03:38:10.989Z,7.50
2023-05-14T03:38:43.934Z,7.50
2023-05-14T03:39:14.772Z,7.61
2023-05-14T03:39:47.727Z,7.61
2023-05-14T03:40:18.852Z,7.61
2023-05-14T03:40:51.853Z,7.61
2023-05-14T03:41:22.727Z,7.72
2023-05-14T03:41:55.630Z,7.72
2023-05-14T03:42:26.725Z,7.72
2023-05-14T03:42:59.694Z,7.72
2023-05-14T03:43:30.733Z,7.72
2023-05-14T03:44:03.616Z,7.72
2023-05-14T03:44:34.650Z,7.72
2023-05-14T03:45:07.848Z,7.72
2023-05-14T03:45:38.515Z,7.72
2023-05-14T03:46:11.398Z,7.72
2023-05-14T03:46:42.584Z,7.72
2023-05-14T03:47:15.491Z,7.72
2023-05-14T03:47:46.492Z,7.72
2023-05-14T03:48:19.586Z,7.72
2023-05-14T03:48:50.721Z,7.72
2023-05-14T03:49:23.360Z,7.72
2023-05-14T03:49:54.372Z,7.72
2023-05-14T03:50:27.388Z,7.77
2023-05-14T03:50:58.399Z,7.77
2023-05-14T03:51:31.282Z,7.77
2023-05-14T03:52:02.251Z,7.88
2023-05-14T03:52:35.174Z,7.88
2023-05-14T03:53:06.308Z,7.88
2023-05-14T03:53:39.231Z,7.88
2023-05-14T03:54:10.201Z,7.88
2023-05-14T03:54:43.003Z,7.88
2023-05-14T03:55:14.240Z,7.88
2023-05-14T03:55:47.081Z,7.88
2023-05-14T03:56:18.098Z,7.88
2023-05-14T03:56:51.145Z,7.88
2023-05-14T03:57:22.144Z,7.88
2023-05-14T03:57:55.094Z,7.88
2023-05-14T03:58:25.996Z,7.88
2023-05-14T03:58:58.998Z,7.88
2023-05-14T03:59:30.068Z,7.77
2023-05-14T04:00:03.302Z,7.77
2023-05-14T04:00:33.906Z,7.77
2023-05-14T04:01:06.819Z,7.77
2023-05-14T04:01:37.961Z,7.88
2023-05-14T04:02:10.960Z,7.88
2023-05-14T04:02:42.084Z,7.88
2023-05-14T04:03:14.975Z,7.88
2023-05-14T04:03:46.201Z,7.88
2023-05-14T04:04:18.713Z,7.88
2023-05-14T04:04:49.900Z,7.88
2023-05-14T04:05:22.679Z,7.88
2023-05-14T04:05:53.845Z,7.88
2023-05-14T04:06:26.648Z,7.77
2023-05-14T04:06:57.779Z,7.77
2023-05-14T04:07:30.692Z,7.77
2023-05-14T04:08:01.685Z,7.77
2023-05-14T04:08:34.615Z,7.77
2023-05-14T04:09:05.584Z,7.77
2023-05-14T04:09:38.395Z,7.77
2023-05-14T04:10:09.626Z,7.77
2023-05-14T04:10:42.336Z,7.77
2023-05-14T04:11:13.485Z,7.88
2023-05-14T04:11:46.465Z,7.77
2023-05-14T04:12:17.553Z,7.77
2023-05-14T04:12:50.314Z,7.77
2023-05-14T04:13:21.477Z,7.77
2023-05-14T04:13:54.346Z,7.88
2023-05-14T04:14:25.489Z,7.88
2023-05-14T04:14:58.093Z,7.88
2023-05-14T04:15:29.543Z,7.88
2023-05-14T04:16:02.282Z,7.88
2023-05-14T04:16:33.921Z,7.88
2023-05-14T04:17:06.097Z,7.88
2023-05-14T04:17:37.388Z,7.88
2023-05-14T04:18:10.262Z,7.88
2023-05-14T04:18:41.525Z,7.88
2023-05-14T04:19:13.956Z,7.88
2023-05-14T04:19:45.200Z,7.88
2023-05-14T04:20:18.072Z,7.88
2023-05-14T04:20:49.007Z,7.88
2023-05-14T04:21:21.983Z,7.88
2023-05-14T04:21:53.114Z,8.00
2023-05-14T04:22:25.987Z,8.00
2023-05-14T04:22:57.133Z,8.00
2023-05-14T04:23:29.926Z,8.00
2023-05-14T04:24:01.270Z,8.00
2023-05-14T04:24:33.916Z,8.00
2023-05-14T04:25:04.853Z,8.00
2023-05-14T04:25:37.773Z,8.00
2023-05-14T04:26:08.891Z,8.00
2023-05-14T04:26:41.807Z,8.00
2023-05-14T04:27:12.787Z,8.00
2023-05-14T04:27:45.685Z,8.00
2023-05-14T04:28:16.943Z,8.00
2023-05-14T04:28:49.766Z,8.11
2023-05-14T04:29:20.861Z,8.11
2023-05-14T04:29:53.628Z,8.11
2023-05-14T04:30:25.018Z,8.11
2023-05-14T04:30:58.153Z,8.11
2023-05-14T04:31:28.594Z,8.11
2023-05-14T04:32:01.776Z,8.11
2023-05-14T04:32:32.704Z,8.11
2023-05-14T04:33:05.642Z,8.22
2023-05-14T04:33:36.494Z,8.22
2023-05-14T04:34:09.485Z,8.22
2023-05-14T04:34:40.650Z,8.22
2023-05-14T04:35:13.582Z,8.22
2023-05-14T04:35:44.414Z,8.22
2023-05-14T04:36:17.333Z,8.22
2023-05-14T04:36:48.491Z,8.22
2023-05-14T04:37:21.592Z,8.22
2023-05-14T04:37:52.350Z,8.22
2023-05-14T04:38:25.362Z,8.22
2023-05-14T04:38:56.386Z,8.27
2023-05-14T04:39:29.333Z,8.27
2023-05-14T04:40:00.409Z,8.27
2023-05-14T04:40:33.170Z,8.27
2023-05-14T04:41:04.293Z,8.27
2023-05-14T04:41:37.110Z,8.27
2023-05-14T04:42:08.143Z,8.27
2023-05-14T04:42:41.169Z,8.27
2023-05-14T04:43:12.191Z,8.27
2023-05-14T04:43:45.129Z,8.27
2023-05-14T04:44:16.164Z,8.38
2023-05-14T04:44:48.979Z,8.38
2023-05-14T04:45:20.458Z,8.38
2023-05-14T04:45:53.106Z,8.38
2023-05-14T04:46:23.986Z,8.38
2023-05-14T04:46:56.832Z,8.38
2023-05-14T04:47:28.141Z,8.38
2023-05-14T04:48:01.140Z,8.38
2023-05-14T04:48:31.864Z,8.38
2023-05-14T04:49:04.832Z,8.38
2023-05-14T04:49:35.982Z,8.38
2023-05-14T04:50:09.209Z,8.38
2023-05-14T04:50:39.822Z,8.38
2023-05-14T04:51:12.631Z,8.38
2023-05-14T04:51:43.856Z,8.38
2023-05-14T04:52:16.905Z,8.27
2023-05-14T04:52:47.813Z,8.27
2023-05-14T04:53:20.883Z,8.27
2023-05-14T04:53:51.998Z,8.27
2023-05-14T04:54:24.745Z,8.27
2023-05-14T04:54:55.634Z,8.38
2023-05-14T04:55:28.575Z,8.38
2023-05-14T04:55:59.667Z,8.38
2023-05-14T04:56:32.641Z,8.38
2023-05-14T04:57:03.559Z,8.38
2023-05-14T04:57:36.624Z,8.38
2023-05-14T04:58:07.645Z,8.38
2023-05-14T04:58:40.846Z,8.38
2023-05-14T04:59:11.474Z,8.38
2023-05-14T04:59:44.456Z,8.38
2023-05-14T05:00:15.711Z,8.50
2023-05-14T05:00:48.281Z,8.50
2023-05-14T05:01:19.408Z,8.50
2023-05-14T05:01:52.302Z,8.50
2023-05-14T05:02:23.559Z,8.50
2023-05-14T05:02:56.266Z,8.50
2023-05-14T05:03:27.471Z,8.50
2023-05-14T05:04:00.485Z,8.50
2023-05-14T05:04:31.391Z,8.50
2023-05-14T05:05:04.155Z,8.50
2023-05-14T05:05:35.197Z,8.50
2023-05-14T05:06:08.183Z,8.50
2023-05-14T05:06:39.234Z,8.50
2023-05-14T05:07:11.985Z,8.50
2023-05-14T05:07:43.092Z,8.61
2023-05-14T05:08:16.153Z,8.61
2023-05-14T05:08:47.220Z,8.61
2023-05-14T05:09:19.872Z,8.61
2023-05-14T05:09:51.218Z,8.72
2023-05-14T05:10:24.255Z,8.72
2023-05-14T05:10:55.105Z,8.72
2023-05-14T05:11:27.884Z,8.72
2023-05-14T05:11:58.949Z,8.72
2023-05-14T05:12:32.173Z,8.72
2023-05-14T05:13:03.016Z,8.72
2023-05-14T05:13:35.871Z,8.72
2023-05-14T05:14:06.886Z,8.72
2023-05-14T05:14:39.843Z,8.72
2023-05-14T05:15:11.124Z,8.77
2023-05-14T05:15:43.586Z,8.77
2023-05-14T05:16:14.997Z,8.77
2023-05-14T05:16:47.704Z,8.77
2023-05-14T05:17:18.699Z,8.77
2023-05-14T05:17:51.664Z,8.72
2023-05-14T05:18:22.728Z,8.72
2023-05-14T05:18:55.713Z,8.72
2023-05-14T05:19:35.731Z,8.72
2023-05-14T05:19:59.523Z,8.72
2023-05-14T05:20:30.788Z,8.72
2023-05-14T05:21:03.548Z,8.72
2023-05-14T05:21:34.471Z,8.72
2023-05-14T05:22:07.391Z,8.72
2023-05-14T05:22:38.532Z,8.72
2023-05-14T05:23:11.504Z,8.77
2023-05-14T05:23:42.407Z,8.77
2023-05-14T05:24:15.323Z,8.77
2023-05-14T05:24:47.058Z,8.77
2023-05-14T05:25:19.426Z,8.77
2023-05-14T05:25:50.426Z,8.77
2023-05-14T05:26:23.138Z,8.77
2023-05-14T05:26:54.848Z,8.77
2023-05-14T05:27:27.395Z,8.88
2023-05-14T05:27:58.196Z,8.88
2023-05-14T05:28:31.316Z,8.88
2023-05-14T05:29:02.265Z,8.88
2023-05-14T05:29:36.111Z,9.00
2023-05-14T05:30:06.432Z,9.00
2023-05-14T05:30:39.043Z,9.11
2023-05-14T05:31:10.228Z,9.11
2023-05-14T05:31:43.186Z,9.11
2023-05-14T05:32:14.051Z,9.22
2023-05-14T05:32:47.101Z,9.22
2023-05-14T05:33:18.126Z,9.22
2023-05-14T05:33:51.246Z,9.22
2023-05-14T05:34:21.964Z,9.27
2023-05-14T05:34:54.949Z,9.27
2023-05-14T05:35:26.036Z,9.27
2023-05-14T05:35:58.985Z,9.27
2023-05-14T05:36:29.914Z,9.27
2023-05-14T05:37:02.914Z,9.27
2023-05-14T05:37:33.975Z,9.22
2023-05-14T05:38:06.848Z,9.22
2023-05-14T05:38:37.799Z,9.22
2023-05-14T05:39:10.982Z,9.22
2023-05-14T05:39:41.823Z,9.27
2023-05-14T05:40:14.810Z,9.27
2023-05-14T05:40:45.722Z,9.27
2023-05-14T05:41:18.638Z,9.27
2023-05-14T05:41:49.816Z,9.38
2023-05-14T05:42:22.736Z,9.38
2023-05-14T05:42:53.595Z,9.38
2023-05-14T05:43:26.520Z,9.50
2023-05-14T05:43:57.680Z,9.50
2023-05-14T05:44:30.532Z,9.50
2023-05-14T05:45:01.830Z,9.50
2023-05-14T05:45:34.452Z,9.50
2023-05-14T05:46:05.614Z,9.50
2023-05-14T05:46:38.526Z,9.50
2023-05-14T05:47:09.454Z,9.61
2023-05-14T05:47:42.433Z,9.61
2023-05-14T05:48:13.493Z,9.61
2023-05-14T05:48:46.597Z,9.61
2023-05-14T05:49:17.428Z,9.61
2023-05-14T05:49:50.255Z,9.61
2023-05-14T05:50:21.818Z,9.61
2023-05-14T05:50:54.217Z,9.72
2023-05-14T05:51:25.265Z,9.72
2023-05-14T05:51:58.511Z,9.72
2023-05-14T05:52:29.302Z,9.77
2023-05-14T05:53:02.366Z,9.77
2023-05-14T05:53:33.163Z,9.77
2023-05-14T05:54:06.089Z,9.77
2023-05-14T05:54:37.251Z,9.88
2023-05-14T05:55:10.024Z,9.88
2023-05-14T05:55:41.324Z,9.88
2023-05-14T05:56:14.018Z,9.88
2023-05-14T05:56:45.561Z,9.88
2023-05-14T05:57:17.939Z,10.00
2023-05-14T05:57:49.018Z,10.00
2023-05-14T05:58:21.968Z,10.00
2023-05-14T05:58:53.053Z,10.11
2023-05-14T05:59:26.692Z,10.11
2023-05-14T05:59:56.944Z,10.11
2023-05-14T06:00:30.025Z,10.11
2023-05-14T06:01:01.055Z,10.11
2023-05-14T06:01:33.594Z,10.11
2023-05-14T06:02:04.889Z,10.11
2023-05-14T06:02:37.954Z,10.11
2023-05-14T06:03:08.924Z,10.11
2023-05-14T06:03:41.603Z,10.11
2023-05-14T06:04:12.750Z,10.11
2023-05-14T06:04:45.641Z,10.11
2023-05-14T06:05:17.137Z,10.11
2023-05-14T06:05:49.744Z,10.11
2023-05-14T06:06:21.242Z,10.11
2023-05-14T06:06:53.686Z,10.22
2023-05-14T06:07:24.728Z,10.22
2023-05-14T06:07:57.332Z,10.22
2023-05-14T06:08:28.552Z,10.22
2023-05-14T06:09:01.742Z,10.22
2023-05-14T06:09:32.711Z,10.27
2023-05-14T06:10:05.411Z,10.27
2023-05-14T06:10:36.508Z,10.27
2023-05-14T06:11:09.504Z,10.27
2023-05-14T06:11:40.691Z,10.38
2023-05-14T06:12:13.272Z,10.38
2023-05-14T06:12:44.420Z,10.38
2023-05-14T06:13:17.484Z,10.27
2023-05-14T06:13:48.491Z,10.27
2023-05-14T06:14:21.395Z,10.27
2023-05-14T06:14:52.365Z,10.27
2023-05-14T06:15:25.382Z,10.27
2023-05-14T06:15:56.369Z,10.27
2023-05-14T06:16:29.118Z,10.27
2023-05-14T06:17:00.514Z,10.27
2023-05-14T06:17:33.182Z,10.27
2023-05-14T06:18:04.319Z,10.38
2023-05-14T06:18:38.212Z,10.38
2023-05-14T06:19:08.186Z,10.38
2023-05-14T06:19:41.079Z,10.50
2023-05-14T06:20:12.198Z,10.50
2023-05-14T06:20:44.934Z,10.50
2023-05-14T06:21:16.079Z,10.61
2023-05-14T06:21:48.894Z,10.61
2023-05-14T06:22:20.133Z,10.72
2023-05-14T06:22:52.836Z,10.72
2023-05-14T06:23:23.989Z,10.72
2023-05-14T06:23:57.025Z,10.72
2023-05-14T06:24:27.862Z,10.72
2023-05-14T06:25:01.006Z,10.72
2023-05-14T06:25:31.900Z,10.72
2023-05-14T06:26:04.817Z,10.72
2023-05-14T06:26:35.761Z,10.72
2023-05-14T06:27:08.715Z,10.72
2023-05-14T06:27:39.855Z,10.72
2023-05-14T06:28:12.758Z,10.72
2023-05-14T06:28:43.694Z,10.72
2023-05-14T06:29:17.456Z,10.72
2023-05-14T06:29:47.860Z,10.72
2023-05-14T06:30:21.035Z,10.72
2023-05-14T06:30:51.768Z,10.72
2023-05-14T06:31:24.512Z,10.72
2023-05-14T06:31:55.759Z,10.72
2023-05-14T06:32:28.822Z,10.72
2023-05-14T06:32:59.627Z,10.72
2023-05-14T06:33:32.436Z,10.77
2023-05-14T06:34:03.587Z,10.77
2023-05-14T06:34:37.394Z,10.77
2023-05-14T06:35:07.678Z,10.88
2023-05-14T06:35:41.267Z,10.88
2023-05-14T06:36:11.592Z,11.00
2023-05-14T06:36:44.514Z,11.00
2023-05-14T06:37:15.397Z,11.11
2023-05-14T06:37:48.301Z,11.11
2023-05-14T06:38:19.415Z,11.11
2023-05-14T06:38:52.408Z,11.11
2023-05-14T06:39:23.288Z,11.11
2023-05-14T06:39:57.755Z,11.11
2023-05-14T06:40:27.308Z,11.11
2023-05-14T06:41:00.078Z,11.11
2023-05-14T06:41:31.434Z,11.11
2023-05-14T06:42:04.115Z,11.11
2023-05-14T06:42:35.206Z,11.11
2023-05-14T06:43:08.187Z,11.11
2023-05-14T06:43:39.085Z,11.11
2023-05-14T06:44:11.990Z,11.11
2023-05-14T06:44:43.156Z,11.11
2023-05-14T06:45:15.888Z,11.22
2023-05-14T06:45:47.108Z,11.22
2023-05-14T06:46:19.822Z,11.22
2023-05-14T06:46:51.462Z,11.22
2023-05-14T06:47:23.784Z,11.22
2023-05-14T06:47:54.986Z,11.11
2023-05-14T06:48:28.116Z,11.11
2023-05-14T06:48:59.745Z,11.11
2023-05-14T06:49:31.690Z,11.11
2023-05-14T06:50:02.860Z,11.11
2023-05-14T06:50:35.741Z,11.22
2023-05-14T06:51:07.071Z,11.22
2023-05-14T06:51:39.748Z,11.22
2023-05-14T06:52:10.851Z,11.22
2023-05-14T06:52:43.635Z,11.22
2023-05-14T06:53:14.811Z,11.22
2023-05-14T06:53:47.702Z,11.22
2023-05-14T06:54:18.712Z,11.22
2023-05-14T06:54:51.763Z,11.22
2023-05-14T06:55:22.740Z,11.22
2023-05-14T06:55:55.450Z,11.27
2023-05-14T06:56:26.587Z,11.27
2023-05-14T06:56:59.395Z,11.27
2023-05-14T06:57:30.878Z,11.27
2023-05-14T06:58:03.492Z,11.38
2023-05-14T06:58:34.536Z,11.38
2023-05-14T06:59:07.437Z,11.38
2023-05-14T06:59:38.549Z,11.38
2023-05-14T07:00:11.653Z,11.50
2023-05-14T07:00:42.442Z,11.38
2023-05-14T07:01:15.377Z,11.38
2023-05-14T07:01:46.809Z,11.38
2023-05-14T07:02:19.195Z,11.38
2023-05-14T07:02:50.586Z,11.38
2023-05-14T07:03:23.295Z,11.38